createdAt,value
2022-10-16T00:01:42.193Z,25.00
2022-10-16T00:04:10.067Z,25.05
2022-10-16T00:06:37.327Z,25.90
2022-10-16T00:09:04.766Z,25.30
2022-10-16T00:11:39.494Z,26.05
2022-10-16T00:14:12.590Z,25.73
2022-10-16T00:19:06.719Z,24.85
2022-10-16T00:21:35.085Z,25.85
2022-10-16T00:24:09.337Z,25.63
2022-10-16T00:26:38.069Z,25.48
2022-10-16T00:29:06.393Z,26.42
2022-10-16T00:31:34.600Z,27.20
2022-10-16T00:34:01.605Z,27.88
2022-10-16T00:36:28.819Z,27.45
2022-10-16T00:41:33.555Z,28.10
2022-10-16T00:44:23.793Z,29.92
2022-10-16T00:46:52.318Z,29.00
2022-10-16T00:49:22.192Z,28.25
2022-10-16T00:51:53.747Z,28.08
2022-10-16T00:54:34.306Z,28.85
2022-10-16T00:57:06.221Z,28.90
2022-10-16T00:59:41.877Z,28.85
2022-10-16T01:02:15.437Z,29.25
2022-10-16T01:04:49.304Z,28.35
2022-10-16T01:07:31.793Z,27.10
2022-10-16T01:10:37.030Z,27.40
2022-10-16T01:13:13.589Z,28.25
2022-10-16T01:15:49.995Z,27.55
2022-10-16T01:18:28.585Z,27.65
2022-10-16T01:21:03.992Z,27.08
2022-10-16T01:24:10.210Z,26.60
2022-10-16T01:27:08.977Z,26.15
2022-10-16T01:30:02.795Z,24.75
2022-10-16T01:33:06.822Z,24.77
2022-10-16T01:35:44.364Z,23.13
2022-10-16T01:38:37.651Z,23.83
2022-10-16T01:41:36.720Z,23.67
2022-10-16T01:44:21.565Z,22.88
2022-10-16T01:46:53.041Z,22.55
2022-10-16T01:49:25.753Z,22.98
2022-10-16T01:51:58.912Z,23.13
2022-10-16T01:54:32.580Z,23.63
2022-10-16T01:57:01.000Z,23.60
2022-10-16T01:59:32.792Z,23.52
2022-10-16T02:02:10.485Z,22.67
2022-10-16T02:05:16.027Z,22.48
2022-10-16T02:07:43.692Z,22.25
2022-10-16T02:10:11.324Z,22.48
2022-10-16T02:12:44.361Z,21.85
2022-10-16T02:15:11.378Z,21.25
2022-10-16T02:17:38.372Z,21.52
2022-10-16T02:20:06.847Z,21.65
2022-10-16T02:22:43.870Z,21.20
2022-10-16T02:25:26.035Z,22.17
2022-10-16T02:27:56.088Z,21.00
2022-10-16T02:30:34.179Z,23.75
2022-10-16T02:33:04.155Z,22.42
2022-10-16T02:35:32.878Z,23.58
2022-10-16T02:38:00.531Z,23.65
2022-10-16T02:40:28.609Z,24.52
2022-10-16T02:42:56.359Z,23.83
2022-10-16T02:45:25.085Z,24.85
2022-10-16T02:47:52.447Z,24.70
2022-10-16T02:50:19.417Z,24.95
2022-10-16T02:52:46.424Z,25.17
2022-10-16T02:55:13.344Z,25.40
2022-10-16T02:57:41.420Z,24.85
2022-10-16T03:00:13.294Z,26.27
2022-10-16T03:02:40.604Z,27.13
2022-10-16T03:05:08.607Z,27.48
2022-10-16T03:07:35.714Z,28.58
2022-10-16T03:10:02.902Z,29.02
2022-10-16T03:12:30.301Z,31.00
2022-10-16T03:14:57.791Z,30.23
2022-10-16T03:17:25.922Z,30.23
2022-10-16T03:19:53.233Z,30.58
2022-10-16T03:22:20.322Z,31.05
2022-10-16T03:24:47.364Z,31.80
2022-10-16T03:27:14.274Z,32.58
2022-10-16T03:29:41.229Z,33.08
2022-10-16T03:32:08.350Z,34.30
2022-10-16T03:34:35.246Z,34.17
2022-10-16T03:37:02.122Z,36.03
2022-10-16T03:39:29.078Z,35.95
2022-10-16T03:41:56.088Z,37.58
2022-10-16T03:44:23.012Z,37.35
2022-10-16T03:46:49.950Z,36.88
2022-10-16T03:49:16.881Z,36.83
2022-10-16T03:51:43.798Z,37.08
2022-10-16T03:54:11.971Z,37.25
2022-10-16T03:56:39.565Z,38.10
2022-10-16T03:59:06.560Z,36.33
2022-10-16T04:01:33.595Z,36.40
2022-10-16T04:17:05.134Z,39.53
2022-10-16T04:19:32.081Z,37.13
2022-10-16T04:21:59.001Z,37.70
2022-10-16T04:24:25.874Z,37.63
2022-10-16T04:26:52.883Z,36.92
2022-10-16T04:29:19.899Z,38.08
2022-10-16T04:31:47.860Z,36.95
2022-10-16T04:34:14.742Z,37.65
2022-10-16T04:36:41.633Z,37.70
2022-10-16T04:39:08.724Z,37.60
2022-10-16T04:41:35.695Z,37.20
2022-10-16T04:44:02.643Z,37.50
2022-10-16T04:46:29.594Z,37.08
2022-10-16T04:48:56.475Z,37.08
2022-10-16T04:51:24.171Z,37.60
2022-10-16T04:53:51.100Z,37.38
2022-10-16T04:56:18.294Z,37.50
2022-10-16T04:58:45.239Z,37.50
2022-10-16T05:01:12.117Z,39.50
2022-10-16T05:03:38.982Z,38.38
2022-10-16T05:06:09.316Z,37.22
2022-10-16T05:08:36.290Z,35.83
2022-10-16T05:11:03.192Z,35.10
2022-10-16T05:13:30.223Z,37.10
2022-10-16T05:15:58.082Z,35.85
2022-10-16T05:18:24.985Z,34.97
2022-10-16T05:20:51.911Z,35.28
2022-10-16T05:23:18.823Z,34.97
2022-10-16T05:25:55.476Z,35.15
2022-10-16T05:28:22.553Z,35.45
2022-10-16T05:30:49.440Z,34.20
2022-10-16T05:33:16.460Z,34.22
2022-10-16T05:35:43.576Z,34.90
2022-10-16T05:38:10.699Z,35.05
2022-10-16T05:40:37.611Z,34.60
2022-10-16T05:43:04.610Z,34.00
2022-10-16T05:45:31.782Z,33.42
2022-10-16T05:47:58.780Z,33.65
2022-10-16T05:50:25.650Z,33.15
2022-10-16T05:52:52.580Z,32.58
2022-10-16T05:55:19.706Z,32.17
2022-10-16T05:57:46.618Z,33.42
2022-10-16T06:00:13.755Z,32.63
2022-10-16T06:02:40.635Z,32.10
2022-10-16T06:05:07.772Z,33.00
2022-10-16T06:07:37.823Z,31.92
2022-10-16T06:10:06.084Z,32.30
2022-10-16T06:12:33.017Z,32.58
2022-10-16T06:14:59.895Z,30.85
2022-10-16T06:17:27.056Z,31.67
2022-10-16T06:19:54.188Z,31.77
2022-10-16T06:22:21.164Z,32.25
2022-10-16T06:24:48.597Z,31.88
2022-10-16T06:27:15.518Z,30.52
2022-10-16T06:29:44.028Z,32.20
2022-10-16T06:32:10.919Z,32.35
2022-10-16T06:34:40.619Z,32.20
2022-10-16T06:37:10.202Z,31.63
2022-10-16T06:39:37.088Z,29.88
2022-10-16T06:42:04.027Z,31.10
2022-10-16T06:44:30.926Z,30.33
2022-10-16T06:46:57.801Z,29.60
2022-10-16T06:49:24.830Z,30.10
2022-10-16T06:51:51.755Z,29.25
2022-10-16T06:54:21.351Z,29.38
2022-10-16T06:56:48.288Z,29.92
2022-10-16T06:59:15.217Z,29.25
2022-10-16T07:01:42.126Z,29.45
2022-10-16T07:04:09.074Z,28.45
2022-10-16T07:06:36.183Z,28.70
2022-10-16T07:09:07.835Z,28.80
2022-10-16T07:11:35.771Z,27.05
2022-10-16T07:14:02.836Z,27.17
2022-10-16T07:16:33.474Z,26.38
2022-10-16T07:19:03.474Z,27.25
2022-10-16T07:21:37.732Z,26.67
2022-10-16T07:24:07.948Z,27.42
2022-10-16T07:26:37.973Z,26.85
2022-10-16T07:29:05.276Z,26.33
2022-10-16T07:31:32.654Z,27.73
2022-10-16T07:34:01.638Z,26.60
2022-10-16T07:36:28.968Z,26.95
2022-10-16T07:39:00.143Z,28.33
2022-10-16T07:41:28.668Z,28.40
2022-10-16T07:44:01.259Z,27.63
2022-10-16T07:46:29.266Z,34.17
2022-10-16T07:48:56.331Z,37.83
2022-10-16T07:51:25.602Z,27.85
2022-10-16T07:53:53.445Z,37.17
2022-10-16T07:56:22.196Z,28.75
2022-10-16T07:58:51.128Z,31.40
2022-10-16T08:01:19.913Z,27.75
2022-10-16T08:03:50.750Z,28.20
2022-10-16T08:18:37.004Z,30.48
2022-10-16T08:21:05.743Z,30.30
2022-10-16T08:23:34.461Z,30.88
2022-10-16T08:26:09.461Z,29.95
2022-10-16T08:28:37.825Z,29.98
2022-10-16T08:33:48.319Z,32.17
2022-10-16T08:36:16.828Z,29.65
2022-10-16T08:38:44.037Z,29.45
2022-10-16T08:41:53.678Z,31.25
2022-10-16T08:44:41.889Z,28.80
2022-10-16T08:47:40.651Z,31.63
2022-10-16T08:50:26.419Z,28.55
2022-10-16T08:52:53.620Z,30.85
2022-10-16T08:55:43.028Z,32.72
2022-10-16T08:58:29.825Z,54.63
2022-10-16T09:01:15.429Z,43.95
2022-10-16T09:04:43.661Z,32.35
2022-10-16T09:07:32.992Z,38.92
2022-10-16T09:10:16.636Z,29.60
2022-10-16T09:13:24.893Z,28.83
2022-10-16T09:16:27.412Z,31.92
2022-10-16T09:19:14.912Z,29.30
2022-10-16T09:21:46.039Z,35.53
2022-10-16T09:24:29.401Z,27.05
2022-10-16T09:27:01.741Z,27.17
2022-10-16T09:29:28.985Z,26.42
2022-10-16T09:32:16.001Z,25.98
2022-10-16T09:35:08.248Z,27.65
2022-10-16T09:37:38.172Z,25.38
2022-10-16T09:40:07.689Z,25.25
2022-10-16T09:42:38.281Z,26.80
2022-10-16T09:45:07.341Z,25.02
2022-10-16T09:47:46.035Z,24.70
2022-10-16T09:50:29.574Z,26.95
2022-10-16T09:53:18.575Z,26.05
2022-10-16T09:55:54.385Z,23.75
2022-10-16T09:58:25.598Z,25.25
2022-10-16T10:00:55.404Z,27.08
2022-10-16T10:03:53.737Z,23.70
2022-10-16T10:06:29.769Z,22.30
2022-10-16T10:09:03.801Z,22.17
2022-10-16T10:11:52.947Z,24.80
2022-10-16T10:14:27.596Z,27.15
2022-10-16T10:17:12.242Z,21.40
2022-10-16T10:19:49.430Z,20.52
2022-10-16T10:22:53.554Z,18.05
2022-10-16T10:25:53.814Z,25.48
2022-10-16T10:28:26.727Z,25.55
2022-10-16T10:31:27.150Z,21.50
2022-10-16T10:34:24.010Z,20.35
2022-10-16T10:37:16.929Z,21.20
2022-10-16T10:40:12.494Z,18.15
2022-10-16T10:43:02.259Z,18.35
2022-10-16T10:45:47.403Z,22.58
2022-10-16T10:48:20.150Z,19.58
2022-10-16T10:51:01.119Z,16.95
2022-10-16T10:54:05.138Z,18.27
2022-10-16T10:56:58.402Z,17.75
2022-10-16T10:59:46.380Z,16.15
2022-10-16T11:02:46.004Z,17.00
2022-10-16T11:05:57.216Z,16.88
2022-10-16T11:08:44.676Z,16.65
2022-10-16T11:11:24.102Z,18.20
2022-10-16T11:14:03.876Z,17.85
2022-10-16T11:16:40.936Z,17.45
2022-10-16T11:19:23.156Z,18.20
2022-10-16T11:22:08.380Z,18.90
2022-10-16T11:25:05.910Z,18.67
2022-10-16T11:27:59.945Z,15.55
2022-10-16T11:30:31.716Z,15.48
2022-10-16T11:33:19.340Z,14.73
2022-10-16T11:36:04.362Z,14.73
2022-10-16T11:39:20.323Z,13.63
2022-10-16T11:42:12.718Z,11.82
2022-10-16T11:44:58.785Z,11.40
2022-10-16T11:47:58.786Z,11.82
2022-10-16T11:50:46.400Z,14.18
2022-10-16T11:53:31.308Z,12.50
2022-10-16T11:55:58.246Z,11.38
2022-10-16T11:58:53.847Z,11.32
2022-10-16T12:01:36.462Z,13.57
2022-10-16T12:04:28.683Z,12.45
2022-10-16T12:07:11.844Z,13.25
2022-10-16T12:09:41.573Z,13.32
2022-10-16T12:12:37.189Z,12.18
2022-10-16T12:15:22.232Z,13.68
2022-10-16T12:17:57.877Z,12.18
2022-10-16T12:20:33.296Z,13.45
2022-10-16T12:23:06.379Z,13.75
2022-10-16T12:28:27.314Z,13.48
2022-10-16T12:30:59.845Z,12.93
2022-10-16T12:33:31.850Z,13.00
2022-10-16T12:36:02.840Z,13.10
2022-10-16T12:38:46.344Z,12.82
2022-10-16T12:41:15.570Z,12.35
2022-10-16T12:43:48.857Z,12.25
2022-10-16T12:46:15.726Z,11.98
2022-10-16T12:49:06.067Z,12.48
2022-10-16T12:51:33.671Z,12.50
2022-10-16T12:54:02.394Z,12.60
2022-10-16T12:57:15.830Z,12.85
2022-10-16T12:59:51.924Z,12.73
2022-10-16T13:03:12.401Z,13.70
2022-10-16T13:06:20.063Z,11.73
2022-10-16T13:20:12.422Z,10.32
2022-10-16T13:23:16.154Z,10.02
2022-10-16T13:26:11.144Z,9.82
2022-10-16T13:28:40.316Z,11.05
2022-10-16T13:31:24.448Z,9.55
2022-10-16T13:33:56.923Z,10.65
2022-10-16T13:36:43.680Z,10.63
2022-10-16T13:39:23.379Z,10.10
2022-10-16T13:42:28.784Z,11.10
2022-10-16T13:44:57.648Z,10.30
2022-10-16T13:47:31.080Z,10.20
2022-10-16T13:50:18.680Z,10.10
2022-10-16T13:52:45.809Z,10.00
2022-10-16T13:55:15.578Z,10.43
2022-10-16T13:57:43.137Z,9.10
2022-10-16T14:00:31.628Z,8.75
2022-10-16T14:03:15.802Z,9.73
2022-10-16T14:05:54.270Z,7.88
2022-10-16T14:08:22.788Z,9.13
2022-10-16T14:10:57.144Z,9.20
2022-10-16T14:13:40.995Z,7.93
2022-10-16T14:16:20.426Z,7.80
2022-10-16T14:19:00.986Z,7.00
2022-10-16T14:21:29.200Z,7.68
2022-10-16T14:23:57.001Z,8.15
2022-10-16T14:26:28.547Z,7.15
2022-10-16T14:29:19.258Z,8.00
2022-10-16T14:32:24.913Z,9.50
2022-10-16T14:34:55.666Z,10.27
2022-10-16T14:37:29.823Z,11.98
2022-10-16T14:39:58.004Z,9.45
2022-10-16T14:42:26.852Z,8.25
2022-10-16T14:44:56.052Z,8.10
2022-10-16T14:47:27.933Z,9.15
2022-10-16T14:49:58.638Z,8.90
2022-10-16T14:52:25.760Z,7.47
2022-10-16T14:54:55.694Z,8.50
2022-10-16T14:57:29.544Z,8.52
2022-10-16T14:59:57.216Z,7.85
2022-10-16T15:02:31.926Z,8.00
2022-10-16T15:05:26.918Z,8.40
2022-10-16T15:07:56.221Z,8.15
2022-10-16T15:10:26.900Z,8.77
2022-10-16T15:12:53.865Z,8.13
2022-10-16T15:15:37.571Z,7.70
2022-10-16T15:18:05.753Z,8.00
2022-10-16T15:20:37.093Z,8.00
2022-10-16T15:23:15.999Z,9.10
2022-10-16T15:25:45.851Z,8.77
2022-10-16T15:28:14.707Z,11.55
2022-10-16T15:30:42.686Z,9.85
2022-10-16T15:33:21.743Z,9.57
2022-10-16T15:35:50.955Z,9.52
2022-10-16T15:38:20.755Z,9.50
2022-10-16T15:40:49.448Z,9.80
2022-10-16T15:43:17.020Z,9.68
2022-10-16T15:45:43.979Z,10.23
2022-10-16T15:48:14.755Z,10.45
2022-10-16T15:53:15.173Z,22.35
2022-10-16T15:55:42.080Z,21.92
2022-10-16T15:58:09.054Z,115.55
2022-10-16T16:00:36.037Z,85.93
2022-10-16T16:03:03.034Z,128.15
2022-10-16T16:05:30.113Z,168.82
2022-10-16T16:07:58.231Z,200.30
2022-10-16T16:10:25.144Z,294.50
2022-10-16T16:12:53.639Z,209.00
2022-10-16T16:15:23.178Z,106.47
2022-10-16T16:17:50.574Z,65.20
2022-10-16T16:20:17.938Z,54.72
2022-10-16T16:22:44.980Z,50.70
2022-10-16T16:25:12.008Z,42.15
2022-10-16T16:27:39.760Z,33.83
2022-10-16T16:30:08.355Z,46.13
2022-10-16T16:32:36.379Z,50.80
2022-10-16T16:35:05.675Z,46.92
2022-10-16T16:37:32.713Z,50.20
2022-10-16T16:39:59.676Z,49.00
2022-10-16T16:42:28.255Z,56.10
2022-10-16T16:44:55.685Z,62.08
2022-10-16T16:47:22.866Z,81.93
2022-10-16T16:49:49.864Z,50.60
2022-10-16T16:52:18.127Z,37.72
2022-10-16T16:54:52.240Z,61.80
2022-10-16T16:57:20.880Z,90.25
2022-10-16T16:59:51.043Z,83.65
2022-10-16T17:02:18.128Z,79.32
2022-10-16T17:04:45.115Z,79.53
2022-10-16T17:07:12.068Z,66.82
2022-10-16T17:09:39.094Z,52.17
2022-10-16T17:12:06.494Z,39.40
2022-10-16T17:14:33.516Z,23.80
2022-10-16T17:17:00.454Z,19.30
2022-10-16T17:19:27.514Z,19.10
2022-10-16T17:21:54.489Z,18.40
2022-10-16T17:24:21.791Z,17.08
2022-10-16T17:26:49.477Z,16.67
2022-10-16T17:29:18.487Z,17.05
2022-10-16T17:31:46.634Z,18.30
2022-10-16T17:34:14.192Z,19.10
2022-10-16T17:36:46.779Z,17.60
2022-10-16T17:39:20.086Z,16.90
2022-10-16T17:41:48.786Z,17.92
2022-10-16T17:44:22.327Z,17.33
2022-10-16T17:46:52.652Z,19.85
2022-10-16T17:49:20.824Z,18.02
2022-10-16T17:51:52.749Z,38.97
2022-10-16T17:54:20.445Z,37.25
2022-10-16T17:56:48.765Z,29.27
2022-10-16T17:59:16.017Z,20.30
2022-10-16T18:01:45.971Z,18.48
2022-10-16T18:04:17.079Z,17.10
2022-10-16T18:06:45.728Z,17.88
2022-10-16T18:09:18.154Z,17.92
2022-10-16T18:11:45.490Z,32.45
2022-10-16T18:14:15.733Z,41.00
2022-10-16T18:16:43.405Z,19.73
2022-10-16T18:19:12.127Z,19.45
2022-10-16T18:21:39.747Z,20.73
2022-10-16T18:24:07.054Z,20.33
2022-10-16T18:26:34.338Z,18.02
2022-10-16T18:29:02.841Z,18.70
2022-10-16T18:31:30.375Z,17.20
2022-10-16T18:33:58.280Z,18.08
2022-10-16T18:36:32.602Z,18.13
2022-10-16T18:39:02.253Z,18.45
2022-10-16T18:41:30.162Z,17.35
2022-10-16T18:43:57.158Z,17.17
2022-10-16T18:46:26.662Z,16.23
2022-10-16T18:48:54.470Z,16.25
2022-10-16T18:51:34.031Z,17.10
2022-10-16T18:54:05.364Z,16.52
2022-10-16T18:56:32.864Z,17.80
2022-10-16T18:59:05.670Z,18.55
2022-10-16T19:01:36.325Z,20.30
2022-10-16T19:04:13.797Z,18.63
2022-10-16T19:06:45.148Z,16.98
2022-10-16T19:09:13.912Z,17.00
2022-10-16T19:11:42.755Z,17.83
2022-10-16T19:14:14.809Z,21.30
2022-10-16T19:16:43.150Z,19.38
2022-10-16T19:19:16.017Z,19.40
2022-10-16T19:21:43.644Z,20.05
2022-10-16T19:24:14.469Z,18.95
2022-10-16T19:26:42.806Z,20.02
2022-10-16T19:29:10.757Z,19.73
2022-10-16T19:31:38.242Z,18.83
2022-10-16T19:34:07.433Z,20.55
2022-10-16T19:36:37.298Z,21.20
2022-10-16T19:39:08.867Z,21.40
2022-10-16T19:41:38.058Z,22.52
2022-10-16T19:44:09.150Z,23.77
2022-10-16T19:46:37.372Z,21.63
2022-10-16T19:49:14.080Z,21.50
2022-10-16T19:51:41.466Z,22.25
2022-10-16T19:54:13.106Z,23.38
2022-10-16T19:56:41.200Z,21.55
2022-10-16T19:59:12.759Z,20.77
2022-10-16T20:01:39.834Z,19.75
2022-10-16T20:04:07.166Z,18.63
2022-10-16T20:06:34.112Z,17.98
2022-10-16T20:09:01.062Z,17.15
2022-10-16T20:11:34.886Z,17.25
2022-10-16T20:14:03.464Z,17.08
2022-10-16T20:16:31.940Z,17.05
2022-10-16T20:19:01.782Z,17.08
2022-10-16T20:21:35.416Z,17.20
2022-10-16T20:24:06.281Z,18.42
2022-10-16T20:26:33.367Z,18.92
2022-10-16T20:29:00.574Z,21.48
2022-10-16T20:31:30.210Z,19.73
2022-10-16T20:34:01.715Z,19.13
2022-10-16T20:36:30.715Z,19.63
2022-10-16T20:38:58.012Z,18.90
2022-10-16T20:41:25.324Z,19.63
2022-10-16T20:43:52.904Z,20.50
2022-10-16T20:46:24.654Z,18.42
2022-10-16T20:48:53.178Z,17.90
2022-10-16T20:51:28.240Z,17.63
2022-10-16T20:54:03.329Z,19.27
2022-10-16T20:56:34.216Z,18.23
2022-10-16T20:59:01.262Z,18.73
2022-10-16T21:01:31.821Z,20.85
2022-10-16T21:04:02.431Z,21.10
2022-10-16T21:06:32.357Z,21.88
2022-10-16T21:09:03.013Z,21.10
2022-10-16T21:11:35.070Z,21.25
2022-10-16T21:14:05.336Z,25.10
2022-10-16T21:16:32.666Z,25.23
2022-10-16T21:18:59.660Z,22.50
2022-10-16T21:21:33.932Z,22.73
2022-10-16T21:24:01.612Z,22.33
2022-10-16T21:26:30.500Z,22.27
2022-10-16T21:29:06.002Z,21.30
2022-10-16T21:31:34.408Z,23.98
2022-10-16T21:34:02.252Z,23.33
2022-10-16T21:36:33.502Z,21.33
2022-10-16T21:39:11.088Z,20.95
2022-10-16T21:41:38.946Z,19.50
2022-10-16T21:44:06.528Z,22.05
2022-10-16T21:46:38.302Z,22.33
2022-10-16T21:49:12.060Z,21.65
2022-10-16T21:51:42.554Z,22.08
2022-10-16T21:54:14.955Z,22.40
2022-10-16T21:56:42.284Z,23.08
2022-10-16T21:59:12.114Z,22.48
2022-10-16T22:01:39.447Z,24.25
2022-10-16T22:04:06.447Z,21.17
2022-10-16T22:06:33.374Z,19.58
2022-10-16T22:09:00.989Z,17.92
2022-10-16T22:11:37.859Z,18.83
2022-10-16T22:14:13.532Z,16.52
2022-10-16T22:16:42.073Z,18.42
2022-10-16T22:19:10.682Z,17.60
2022-10-16T22:21:40.555Z,17.95
2022-10-16T22:24:09.078Z,16.75
2022-10-16T22:26:38.109Z,17.25
2022-10-16T22:29:06.172Z,17.17
2022-10-16T22:31:34.312Z,17.30
2022-10-16T22:34:04.500Z,17.00
2022-10-16T22:36:32.768Z,18.15
2022-10-16T22:39:00.440Z,18.08
2022-10-16T22:41:27.567Z,16.25
2022-10-16T22:43:54.532Z,16.75
2022-10-16T22:46:26.072Z,17.30
2022-10-16T22:48:55.859Z,17.05
2022-10-16T22:51:26.344Z,16.52
2022-10-16T22:53:53.335Z,16.42
2022-10-16T22:56:22.146Z,17.25
2022-10-16T22:58:49.733Z,17.75
2022-10-16T23:01:33.443Z,17.70
2022-10-16T23:04:01.730Z,16.83
2022-10-16T23:06:29.342Z,16.75
2022-10-16T23:08:59.795Z,16.35
2022-10-16T23:11:29.498Z,17.88
2022-10-16T23:13:56.547Z,19.55
2022-10-16T23:16:24.899Z,17.80
2022-10-16T23:18:53.173Z,15.90
2022-10-16T23:21:24.647Z,16.58
2022-10-16T23:23:53.351Z,17.02
2022-10-16T23:26:24.879Z,17.55
2022-10-16T23:28:52.219Z,16.77
2022-10-16T23:31:19.556Z,16.73
2022-10-16T23:33:46.477Z,16.60
2022-10-16T23:36:17.260Z,17.25
2022-10-16T23:38:45.492Z,17.67
2022-10-16T23:41:14.138Z,16.75
2022-10-16T23:43:41.442Z,16.65
2022-10-16T23:46:11.410Z,16.50
2022-10-16T23:48:38.844Z,15.82
2022-10-16T23:51:07.400Z,20.17
2022-10-16T23:53:34.463Z,19.05
2022-10-16T23:56:01.391Z,19.40
2022-10-16T23:58:28.285Z,17.58
